createdAt,value
2022-10-23T00:01:35.280Z,84.29
2022-10-23T00:04:22.752Z,84.77
2022-10-23T00:06:51.744Z,84.88
2022-10-23T00:09:21.965Z,84.90
2022-10-23T00:11:51.984Z,84.82
2022-10-23T00:14:21.790Z,84.72
2022-10-23T00:16:48.729Z,85.08
2022-10-23T00:19:15.729Z,85.96
2022-10-23T00:21:42.254Z,85.94
2022-10-23T00:26:41.442Z,86.72
2022-10-23T00:29:09.102Z,86.71
2022-10-23T00:31:36.362Z,85.75
2022-10-23T00:34:04.154Z,85.54
2022-10-23T00:36:30.684Z,84.75
2022-10-23T00:38:57.294Z,84.98
2022-10-23T00:41:32.318Z,84.58
2022-10-23T00:44:03.709Z,84.93
2022-10-23T00:46:31.403Z,84.54
2022-10-23T00:48:59.419Z,84.79
2022-10-23T00:51:29.561Z,84.32
2022-10-23T00:54:06.655Z,84.66
2022-10-23T00:56:46.605Z,84.61
2022-10-23T00:59:13.836Z,84.69
2022-10-23T01:01:42.001Z,84.31
2022-10-23T01:04:09.922Z,84.29
2022-10-23T01:07:02.707Z,84.37
2022-10-23T01:09:35.481Z,84.83
2022-10-23T01:12:41.335Z,84.44
2022-10-23T01:15:08.379Z,84.59
2022-10-23T01:17:57.220Z,83.68
2022-10-23T01:20:50.577Z,83.59
2022-10-23T01:23:35.567Z,85.30
2022-10-23T01:26:37.492Z,85.10
2022-10-23T01:29:04.318Z,84.39
2022-10-23T01:31:47.267Z,84.53
2022-10-23T01:34:28.545Z,84.68
2022-10-23T01:36:57.083Z,85.42
2022-10-23T01:39:37.159Z,84.94
2022-10-23T01:42:17.839Z,84.74
2022-10-23T01:44:50.178Z,84.17
2022-10-23T01:47:23.935Z,83.58
2022-10-23T01:50:07.726Z,83.79
2022-10-23T01:52:36.022Z,82.78
2022-10-23T01:55:07.288Z,82.65
2022-10-23T01:57:37.465Z,83.50
2022-10-23T02:00:11.084Z,84.75
2022-10-23T02:02:52.081Z,85.13
2022-10-23T02:05:29.214Z,84.85
2022-10-23T02:07:59.185Z,84.07
2022-10-23T02:10:52.733Z,83.69
2022-10-23T02:13:38.369Z,83.21
2022-10-23T02:16:41.114Z,82.34
2022-10-23T02:19:19.788Z,82.53
2022-10-23T02:21:54.757Z,83.37
2022-10-23T02:24:30.842Z,83.51
2022-10-23T02:27:12.940Z,84.78
2022-10-23T02:30:01.357Z,85.52
2022-10-23T02:32:30.892Z,86.24
2022-10-23T02:34:57.567Z,85.68
2022-10-23T02:37:25.605Z,85.68
2022-10-23T02:39:54.324Z,85.75
2022-10-23T02:43:01.376Z,85.24
2022-10-23T02:45:54.045Z,86.21
2022-10-23T02:48:26.971Z,85.73
2022-10-23T02:51:02.557Z,85.94
2022-10-23T02:54:03.968Z,86.31
2022-10-23T02:57:11.242Z,87.12
2022-10-23T03:00:09.029Z,86.98
2022-10-23T03:03:00.236Z,85.89
2022-10-23T03:05:37.377Z,86.39
2022-10-23T03:08:05.979Z,86.12
2022-10-23T03:10:33.315Z,85.95
2022-10-23T03:13:00.000Z,85.35
2022-10-23T03:15:30.369Z,85.11
2022-10-23T03:17:57.007Z,85.16
2022-10-23T03:20:23.568Z,85.27
2022-10-23T03:22:53.791Z,84.84
2022-10-23T03:25:20.562Z,84.40
2022-10-23T03:27:47.030Z,83.84
2022-10-23T03:30:15.987Z,83.10
2022-10-23T03:32:42.999Z,82.87
2022-10-23T03:35:09.940Z,83.04
2022-10-23T03:37:37.324Z,83.28
2022-10-23T03:40:04.987Z,82.84
2022-10-23T03:42:34.904Z,82.68
2022-10-23T03:45:04.751Z,82.76
2022-10-23T03:47:33.748Z,81.97
2022-10-23T03:50:00.489Z,82.32
2022-10-23T03:52:27.505Z,81.58
2022-10-23T03:54:54.038Z,82.71
2022-10-23T03:57:20.624Z,82.56
2022-10-23T03:59:47.123Z,83.24
2022-10-23T04:02:13.902Z,83.61
2022-10-23T04:04:40.512Z,83.67
2022-10-23T04:07:07.049Z,83.02
2022-10-23T04:09:33.775Z,83.27
2022-10-23T04:12:03.400Z,84.14
2022-10-23T04:14:30.196Z,85.46
2022-10-23T04:16:57.449Z,85.84
2022-10-23T04:19:24.146Z,85.11
2022-10-23T04:21:51.837Z,84.85
2022-10-23T04:24:19.190Z,84.87
2022-10-23T04:26:45.635Z,85.19
2022-10-23T04:29:12.306Z,85.35
2022-10-23T04:31:38.777Z,85.32
2022-10-23T04:36:33.040Z,85.66
2022-10-23T04:39:08.193Z,85.50
2022-10-23T04:41:37.065Z,85.07
2022-10-23T04:44:04.099Z,85.10
2022-10-23T04:46:35.873Z,85.38
2022-10-23T04:49:03.970Z,85.26
2022-10-23T04:51:49.588Z,85.33
2022-10-23T04:54:39.465Z,85.21
2022-10-23T04:57:27.302Z,85.65
2022-10-23T05:00:05.709Z,85.87
2022-10-23T05:02:40.664Z,86.16
2022-10-23T05:05:08.453Z,86.08
2022-10-23T05:07:41.506Z,86.41
2022-10-23T05:10:34.589Z,86.91
2022-10-23T05:13:07.840Z,86.66
2022-10-23T05:15:34.735Z,86.42
2022-10-23T05:18:10.526Z,86.26
2022-10-23T05:20:39.728Z,85.69
2022-10-23T05:23:11.567Z,86.84
2022-10-23T05:25:39.321Z,86.36
2022-10-23T05:28:14.298Z,84.91
2022-10-23T05:30:42.003Z,85.08
2022-10-23T05:33:10.394Z,84.82
2022-10-23T05:35:44.264Z,84.87
2022-10-23T05:38:14.333Z,85.30
2022-10-23T05:40:43.136Z,85.06
2022-10-23T05:43:15.008Z,84.47
2022-10-23T05:46:09.424Z,85.22
2022-10-23T05:48:54.634Z,84.84
2022-10-23T05:51:42.058Z,85.83
2022-10-23T05:54:34.927Z,85.20
2022-10-23T05:57:24.830Z,84.69
2022-10-23T05:59:52.569Z,84.21
2022-10-23T06:02:38.088Z,83.67
2022-10-23T06:05:13.082Z,83.44
2022-10-23T06:08:14.955Z,84.91
2022-10-23T06:10:41.839Z,85.26
2022-10-23T06:13:10.548Z,84.47
2022-10-23T06:15:37.326Z,83.43
2022-10-23T06:18:18.397Z,85.72
2022-10-23T06:21:16.028Z,88.59
2022-10-23T06:23:46.731Z,89.41
2022-10-23T06:26:15.795Z,89.29
2022-10-23T06:29:07.423Z,89.45
2022-10-23T06:31:42.772Z,89.69
2022-10-23T06:34:21.856Z,89.81
2022-10-23T06:36:51.161Z,89.50
2022-10-23T06:39:50.344Z,93.10
2022-10-23T06:42:22.161Z,98.53
2022-10-23T06:44:54.609Z,97.03
2022-10-23T06:47:40.158Z,93.82
2022-10-23T06:50:27.438Z,87.24
2022-10-23T06:52:54.398Z,86.42
2022-10-23T06:55:21.769Z,86.79
2022-10-23T06:57:48.603Z,87.44
2022-10-23T07:00:15.301Z,87.47
2022-10-23T07:02:48.828Z,86.43
2022-10-23T07:05:15.951Z,87.82
2022-10-23T07:07:44.526Z,87.72
2022-10-23T07:10:15.768Z,88.36
2022-10-23T07:12:50.359Z,88.27
2022-10-23T07:15:46.163Z,89.78
2022-10-23T07:18:19.652Z,89.45
2022-10-23T07:21:15.889Z,89.17
2022-10-23T07:23:43.911Z,89.60
2022-10-23T07:26:16.412Z,90.54
2022-10-23T07:28:45.028Z,90.99
2022-10-23T07:31:17.105Z,90.68
2022-10-23T07:34:04.011Z,91.47
2022-10-23T07:36:30.841Z,92.22
2022-10-23T07:38:58.708Z,92.27
2022-10-23T07:41:26.751Z,92.43
2022-10-23T07:43:53.304Z,92.58
2022-10-23T07:46:20.331Z,92.28
2022-10-23T07:48:47.609Z,92.47
2022-10-23T07:51:16.578Z,93.22
2022-10-23T07:53:46.594Z,93.15
2022-10-23T07:56:30.227Z,92.59
2022-10-23T07:59:17.084Z,93.71
2022-10-23T08:01:55.075Z,93.62
2022-10-23T08:04:26.660Z,92.64
2022-10-23T08:07:01.157Z,92.47
2022-10-23T08:09:32.877Z,92.53
2022-10-23T08:12:01.056Z,90.82
2022-10-23T08:14:28.376Z,87.97
2022-10-23T08:16:55.765Z,86.25
2022-10-23T08:19:46.610Z,85.88
2022-10-23T08:22:15.147Z,84.08
2022-10-23T08:24:42.050Z,84.07
2022-10-23T08:27:08.573Z,82.31
2022-10-23T08:29:42.829Z,81.17
2022-10-23T08:32:09.875Z,79.85
2022-10-23T08:34:47.849Z,79.02
2022-10-23T08:37:14.545Z,78.54
2022-10-23T08:39:41.480Z,78.08
2022-10-23T08:42:26.117Z,77.37
2022-10-23T08:45:28.641Z,75.64
2022-10-23T08:48:19.627Z,73.55
2022-10-23T08:51:17.816Z,73.38
2022-10-23T08:53:56.312Z,72.23
2022-10-23T08:56:30.202Z,70.91
2022-10-23T08:59:26.265Z,71.55
2022-10-23T09:02:02.522Z,71.58
2022-10-23T09:04:29.781Z,70.55
2022-10-23T09:10:20.231Z,70.15
2022-10-23T09:12:46.924Z,70.88
2022-10-23T09:15:29.216Z,71.45
2022-10-23T09:18:00.403Z,70.65
2022-10-23T09:20:35.424Z,70.42
2022-10-23T09:23:35.629Z,70.52
2022-10-23T09:26:02.731Z,71.42
2022-10-23T09:28:32.340Z,71.55
2022-10-23T09:31:10.257Z,71.05
2022-10-23T09:33:39.643Z,71.25
2022-10-23T09:36:07.751Z,71.36
2022-10-23T09:38:39.958Z,71.39
2022-10-23T09:41:13.957Z,71.38
2022-10-23T09:43:40.561Z,71.11
2022-10-23T09:46:07.932Z,71.21
2022-10-23T09:48:37.518Z,69.89
2022-10-23T09:51:16.812Z,71.16
2022-10-23T09:54:00.500Z,71.56
2022-10-23T09:56:29.613Z,71.36
2022-10-23T09:59:02.314Z,71.88
2022-10-23T10:01:32.887Z,71.57
2022-10-23T10:04:37.417Z,71.89
2022-10-23T10:07:07.153Z,71.84
2022-10-23T10:09:34.219Z,72.70
2022-10-23T10:12:31.659Z,72.83
2022-10-23T10:15:16.169Z,73.06
2022-10-23T10:18:26.673Z,74.13
2022-10-23T10:21:18.729Z,73.66
2022-10-23T10:24:03.019Z,73.64
2022-10-23T10:26:48.359Z,72.41
2022-10-23T10:29:31.430Z,71.76
2022-10-23T10:32:15.306Z,70.44
2022-10-23T10:34:59.047Z,70.06
2022-10-23T10:37:43.013Z,69.38
2022-10-23T10:40:28.079Z,68.25
2022-10-23T10:43:32.337Z,66.73
2022-10-23T10:46:38.430Z,66.01
2022-10-23T10:49:34.897Z,65.31
2022-10-23T10:52:36.411Z,65.09
2022-10-23T10:55:16.129Z,64.71
2022-10-23T10:57:48.657Z,64.90
2022-10-23T11:00:23.287Z,65.13
2022-10-23T11:03:09.923Z,63.81
2022-10-23T11:05:45.827Z,62.76
2022-10-23T11:08:18.365Z,62.61
2022-10-23T11:10:50.423Z,60.25
2022-10-23T11:13:27.750Z,59.04
2022-10-23T11:16:02.817Z,58.26
2022-10-23T11:18:32.731Z,57.05
2022-10-23T11:21:22.341Z,56.76
2022-10-23T11:24:40.716Z,56.83
2022-10-23T11:27:33.740Z,57.15
2022-10-23T11:30:27.623Z,56.80
2022-10-23T11:33:22.230Z,55.80
2022-10-23T11:36:01.298Z,56.21
2022-10-23T11:38:32.110Z,55.41
2022-10-23T11:41:03.827Z,56.69
2022-10-23T11:43:46.915Z,55.14
2022-10-23T11:46:29.456Z,54.63
2022-10-23T11:48:57.162Z,54.21
2022-10-23T11:51:30.166Z,54.80
2022-10-23T11:54:12.180Z,54.42
2022-10-23T11:56:51.077Z,54.65
2022-10-23T11:59:31.669Z,54.86
2022-10-23T12:02:00.915Z,52.28
2022-10-23T12:04:40.017Z,53.82
2022-10-23T12:07:21.212Z,52.34
2022-10-23T12:10:06.129Z,52.62
2022-10-23T12:12:41.047Z,53.85
2022-10-23T12:15:11.753Z,53.05
2022-10-23T12:17:40.162Z,53.13
2022-10-23T12:20:13.417Z,53.31
2022-10-23T12:23:12.687Z,53.86
2022-10-23T12:25:54.737Z,52.50
2022-10-23T12:28:33.322Z,51.21
2022-10-23T12:34:08.855Z,51.70
2022-10-23T12:37:02.563Z,50.66
2022-10-23T12:39:30.333Z,51.39
2022-10-23T12:42:00.059Z,51.25
2022-10-23T12:44:27.979Z,49.80
2022-10-23T12:47:01.939Z,50.58
2022-10-23T12:49:33.799Z,50.76
2022-10-23T12:52:00.960Z,50.28
2022-10-23T12:54:32.158Z,49.49
2022-10-23T12:56:59.704Z,50.69
2022-10-23T12:59:36.798Z,49.92
2022-10-23T13:02:34.393Z,50.60
2022-10-23T13:05:07.254Z,50.61
2022-10-23T13:07:43.439Z,51.20
2022-10-23T13:10:18.028Z,50.42
2022-10-23T13:12:58.964Z,51.10
2022-10-23T13:15:35.975Z,51.21
2022-10-23T13:18:06.085Z,50.88
2022-10-23T13:20:39.305Z,51.59
2022-10-23T13:23:16.787Z,50.96
2022-10-23T13:25:56.286Z,50.86
2022-10-23T13:28:33.113Z,50.46
2022-10-23T13:31:10.785Z,51.61
2022-10-23T13:33:41.853Z,51.85
2022-10-23T13:36:14.381Z,52.22
2022-10-23T13:38:43.648Z,52.02
2022-10-23T13:41:19.855Z,52.87
2022-10-23T13:43:48.340Z,52.84
2022-10-23T13:46:16.868Z,52.19
2022-10-23T13:48:43.823Z,52.84
2022-10-23T13:51:14.450Z,53.44
2022-10-23T13:53:41.985Z,53.90
2022-10-23T13:56:11.812Z,53.65
2022-10-23T13:58:38.670Z,54.86
2022-10-23T14:01:06.396Z,55.45
2022-10-23T14:03:33.202Z,55.65
2022-10-23T14:06:00.837Z,55.39
2022-10-23T14:08:27.397Z,54.78
2022-10-23T14:10:57.512Z,55.34
2022-10-23T14:13:24.408Z,55.37
2022-10-23T14:15:55.311Z,55.59
2022-10-23T14:18:23.626Z,55.30
2022-10-23T14:20:51.211Z,55.65
2022-10-23T14:23:17.890Z,55.90
2022-10-23T14:25:44.716Z,56.32
2022-10-23T14:28:11.319Z,57.11
2022-10-23T14:30:38.104Z,57.33
2022-10-23T14:33:04.833Z,57.43
2022-10-23T14:35:31.641Z,57.51
2022-10-23T14:37:58.593Z,56.98
2022-10-23T14:40:26.126Z,57.04
2022-10-23T14:42:52.806Z,57.43
2022-10-23T14:45:19.899Z,57.01
2022-10-23T14:47:46.691Z,57.09
2022-10-23T14:50:15.725Z,57.28
2022-10-23T14:52:42.261Z,57.93
2022-10-23T14:55:09.423Z,57.90
2022-10-23T14:57:38.338Z,58.33
2022-10-23T15:00:06.499Z,58.23
2022-10-23T15:02:34.510Z,57.84
2022-10-23T15:05:02.050Z,58.10
2022-10-23T15:07:28.676Z,58.18
2022-10-23T15:09:55.650Z,58.19
2022-10-23T15:12:24.833Z,57.33
2022-10-23T15:14:51.440Z,57.73
2022-10-23T15:17:17.999Z,57.25
2022-10-23T15:19:45.597Z,57.28
2022-10-23T15:22:12.485Z,56.96
2022-10-23T15:24:39.976Z,57.27
2022-10-23T15:27:07.179Z,56.88
2022-10-23T15:29:33.743Z,56.87
2022-10-23T15:32:03.968Z,57.41
2022-10-23T15:34:30.871Z,57.36
2022-10-23T15:36:59.577Z,57.40
2022-10-23T15:39:28.947Z,57.39
2022-10-23T15:41:56.721Z,57.49
2022-10-23T15:44:25.653Z,58.10
2022-10-23T15:46:52.864Z,58.15
2022-10-23T15:49:20.043Z,57.89
2022-10-23T15:51:46.705Z,58.28
2022-10-23T15:54:19.088Z,58.54
2022-10-23T15:56:47.738Z,58.96
2022-10-23T15:59:15.546Z,59.10
2022-10-23T16:01:42.592Z,59.00
2022-10-23T16:04:13.662Z,59.30
2022-10-23T16:06:40.282Z,59.63
2022-10-23T16:09:07.105Z,59.78
2022-10-23T16:11:35.598Z,60.08
2022-10-23T16:14:03.806Z,60.30
2022-10-23T16:16:31.681Z,60.65
2022-10-23T16:19:00.767Z,61.01
2022-10-23T16:21:33.286Z,61.17
2022-10-23T16:24:02.329Z,60.73
2022-10-23T16:26:29.855Z,60.77
2022-10-23T16:28:59.650Z,61.00
2022-10-23T16:31:27.357Z,61.18
2022-10-23T16:33:55.141Z,61.03
2022-10-23T16:36:21.754Z,61.31
2022-10-23T16:39:16.106Z,61.32
2022-10-23T16:42:03.034Z,61.19
2022-10-23T16:44:44.177Z,60.91
2022-10-23T16:47:10.921Z,60.95
2022-10-23T16:49:37.404Z,61.19
2022-10-23T16:52:04.304Z,62.42
2022-10-23T16:54:30.974Z,64.14
2022-10-23T16:56:58.601Z,67.51
2022-10-23T16:59:25.280Z,68.21
2022-10-23T17:01:53.567Z,70.46
2022-10-23T17:04:20.647Z,71.28
2022-10-23T17:06:47.152Z,72.30
2022-10-23T17:09:15.961Z,73.36
2022-10-23T17:11:44.600Z,73.85
2022-10-23T17:14:21.009Z,73.98
2022-10-23T17:17:05.999Z,74.79
2022-10-23T17:19:46.512Z,76.07
2022-10-23T17:22:17.229Z,77.19
2022-10-23T17:24:46.332Z,80.00
2022-10-23T17:27:15.783Z,81.34
2022-10-23T17:29:42.289Z,83.53
2022-10-23T17:32:08.978Z,85.98
2022-10-23T17:34:35.487Z,87.33
2022-10-23T17:37:02.010Z,89.38
2022-10-23T17:39:29.836Z,90.63
2022-10-23T17:41:57.463Z,91.56
2022-10-23T17:44:25.045Z,91.38
2022-10-23T17:46:53.722Z,91.89
2022-10-23T17:49:21.398Z,91.82
2022-10-23T17:51:53.336Z,92.10
2022-10-23T17:54:20.643Z,91.71
2022-10-23T17:56:47.924Z,91.37
2022-10-23T17:59:20.939Z,91.04
2022-10-23T18:01:48.795Z,90.34
2022-10-23T18:04:18.526Z,89.80
2022-10-23T18:06:50.755Z,89.80
2022-10-23T18:09:17.483Z,89.43
2022-10-23T18:11:48.013Z,89.03
2022-10-23T18:14:17.545Z,88.63
2022-10-23T18:16:45.719Z,88.43
2022-10-23T18:19:13.693Z,88.12
2022-10-23T18:21:40.400Z,88.15
2022-10-23T18:24:08.621Z,87.74
2022-10-23T18:26:35.541Z,87.69
2022-10-23T18:29:08.691Z,87.59
2022-10-23T18:31:37.571Z,87.48
2022-10-23T18:34:13.716Z,87.38
2022-10-23T18:36:41.596Z,87.38
2022-10-23T18:39:11.334Z,87.46
2022-10-23T18:41:40.184Z,87.94
2022-10-23T18:44:07.438Z,87.75
2022-10-23T18:46:34.742Z,88.16
2022-10-23T18:49:01.530Z,87.93
2022-10-23T18:51:34.705Z,87.63
2022-10-23T18:54:03.954Z,87.85
2022-10-23T18:56:30.833Z,87.74
2022-10-23T18:59:00.017Z,87.18
2022-10-23T19:01:28.051Z,86.97
2022-10-23T19:06:30.624Z,86.97
2022-10-23T19:08:58.623Z,86.52
2022-10-23T19:11:27.228Z,86.38
2022-10-23T19:13:53.972Z,86.21
2022-10-23T19:16:46.683Z,86.38
2022-10-23T19:19:20.472Z,86.75
2022-10-23T19:21:49.922Z,87.19
2022-10-23T19:24:22.132Z,86.78
2022-10-23T19:26:50.011Z,87.14
2022-10-23T19:29:21.299Z,87.04
2022-10-23T19:31:50.252Z,87.64
2022-10-23T19:34:20.214Z,88.28
2022-10-23T19:36:48.280Z,88.38
2022-10-23T19:39:15.780Z,88.96
2022-10-23T19:41:42.906Z,88.35
2022-10-23T19:44:09.583Z,87.92
2022-10-23T19:46:37.496Z,87.79
2022-10-23T19:49:07.077Z,86.91
2022-10-23T19:51:34.519Z,86.45
2022-10-23T19:54:01.150Z,85.73
2022-10-23T19:56:27.877Z,85.20
2022-10-23T19:58:54.399Z,84.55
2022-10-23T20:01:24.663Z,84.70
2022-10-23T20:03:51.488Z,84.95
2022-10-23T20:06:21.847Z,85.04
2022-10-23T20:08:48.773Z,85.22
2022-10-23T20:11:22.596Z,84.93
2022-10-23T20:13:50.066Z,85.16
2022-10-23T20:16:36.622Z,84.46
2022-10-23T20:19:07.152Z,84.23
2022-10-23T20:21:38.358Z,83.84
2022-10-23T20:24:05.544Z,83.66
2022-10-23T20:26:35.177Z,83.26
2022-10-23T20:29:02.301Z,82.99
2022-10-23T20:31:29.579Z,82.40
2022-10-23T20:33:56.354Z,82.26
2022-10-23T20:36:26.130Z,81.38
2022-10-23T20:38:53.332Z,80.94
2022-10-23T20:41:20.830Z,79.56
2022-10-23T20:43:47.500Z,78.30
2022-10-23T20:46:14.713Z,77.10
2022-10-23T20:48:44.327Z,77.27
2022-10-23T20:51:16.570Z,76.09
2022-10-23T20:53:45.241Z,75.54
2022-10-23T20:56:23.662Z,75.95
2022-10-23T20:58:50.530Z,74.83
2022-10-23T21:01:18.523Z,75.40
2022-10-23T21:03:50.917Z,74.72
2022-10-23T21:06:18.534Z,74.27
2022-10-23T21:08:46.032Z,73.73
2022-10-23T21:11:18.046Z,73.68
2022-10-23T21:13:45.020Z,74.10
2022-10-23T21:16:16.699Z,73.19
2022-10-23T21:18:46.408Z,73.22
2022-10-23T21:21:17.422Z,72.68
2022-10-23T21:23:44.898Z,72.64
2022-10-23T21:26:11.608Z,72.56
2022-10-23T21:28:38.390Z,71.51
2022-10-23T21:31:07.061Z,72.09
2022-10-23T21:33:34.268Z,71.60
2022-10-23T21:36:13.656Z,71.24
2022-10-23T21:38:40.753Z,70.82
2022-10-23T21:41:10.023Z,71.31
2022-10-23T21:43:36.838Z,71.04
2022-10-23T21:46:10.699Z,70.97
2022-10-23T21:48:40.513Z,70.51
2022-10-23T21:51:07.117Z,70.95
2022-10-23T21:53:33.826Z,70.77
2022-10-23T21:56:04.936Z,70.77
2022-10-23T21:58:31.990Z,71.14
2022-10-23T22:00:58.662Z,71.13
2022-10-23T22:03:25.281Z,70.72
2022-10-23T22:05:51.957Z,71.06
2022-10-23T22:08:18.519Z,70.26
2022-10-23T22:10:45.369Z,70.77
2022-10-23T22:13:12.409Z,70.67
2022-10-23T22:15:39.041Z,70.85
2022-10-23T22:18:05.713Z,70.95
2022-10-23T22:20:32.191Z,71.06
2022-10-23T22:22:58.857Z,71.27
2022-10-23T22:25:25.317Z,71.27
2022-10-23T22:27:52.658Z,71.05
2022-10-23T22:30:19.177Z,71.03
2022-10-23T22:32:46.051Z,71.23
2022-10-23T22:35:12.662Z,71.30
2022-10-23T22:37:39.605Z,71.42
2022-10-23T22:40:06.566Z,71.76
2022-10-23T22:42:33.309Z,72.00
2022-10-23T22:45:01.387Z,72.09
2022-10-23T22:47:29.292Z,71.80
2022-10-23T22:49:55.802Z,71.83
2022-10-23T22:52:23.737Z,71.86
2022-10-23T22:54:50.258Z,72.27
2022-10-23T22:57:18.088Z,72.39
2022-10-23T22:59:44.741Z,72.34
2022-10-23T23:02:11.293Z,72.28
2022-10-23T23:04:40.195Z,72.24
2022-10-23T23:07:12.695Z,71.98
2022-10-23T23:09:42.183Z,72.47
2022-10-23T23:12:12.089Z,72.18
2022-10-23T23:14:39.914Z,72.62
2022-10-23T23:17:07.602Z,72.63
2022-10-23T23:19:34.653Z,72.82
2022-10-23T23:22:01.409Z,72.81
2022-10-23T23:24:28.099Z,72.84
2022-10-23T23:26:54.766Z,73.00
2022-10-23T23:29:21.881Z,73.02
2022-10-23T23:31:48.481Z,72.75
2022-10-23T23:34:15.524Z,72.42
2022-10-23T23:36:44.105Z,72.26
2022-10-23T23:39:11.130Z,72.10
2022-10-23T23:41:37.832Z,71.97
2022-10-23T23:44:05.004Z,72.13
2022-10-23T23:46:31.579Z,72.34
2022-10-23T23:48:58.159Z,72.55
2022-10-23T23:51:25.547Z,72.39
2022-10-23T23:53:53.055Z,72.61
2022-10-23T23:56:20.353Z,72.43
2022-10-23T23:58:47.370Z,72.52
